Terminal Aerodrome Forecast
Issued by NWS Twin Cities, MN

Home | Current Version | Previous Version | Graphics & Text | Print | Product List | Glossary On
Versions: 1 2 3 4 5 6 7 8 9 10 11 12 13 14 15 16 17 18 19
000
FTUS43 KMPX 171702 AAA
TAFSTC
TAF AMD
KSTC 171702Z 1717/1812 VRB05KT P6SM BKN120
     FM171900 14008KT 6SM -DZ BR OVC008
     FM172100 35006KT 4SM -RA BR OVC015
     FM180100 33009KT P6SM OVC015
     FM180600 34010KT P6SM OVC100=

USA.gov is the U.S. government's official web portal to all federal, state and local government web resources and services.